sensor_id;sensor_type;location;lat;lon;timestamp;temperature;humidity
21167;DHT22;10741;52.272;9.580;2023-07-16T00:01:44;20.90;99.90
21167;DHT22;10741;52.272;9.580;2023-07-16T00:04:10;20.90;99.90
21167;DHT22;10741;52.272;9.580;2023-07-16T00:06:35;20.90;99.90
21167;DHT22;10741;52.272;9.580;2023-07-16T00:09:01;20.80;99.90
21167;DHT22;10741;52.272;9.580;2023-07-16T00:11:27;20.70;99.90
21167;DHT22;10741;52.272;9.580;2023-07-16T00:13:53;20.70;99.90
21167;DHT22;10741;52.272;9.580;2023-07-16T00:16:19;20.60;99.90
21167;DHT22;10741;52.272;9.580;2023-07-16T00:18:45;20.60;99.90
21167;DHT22;10741;52.272;9.580;2023-07-16T00:21:10;20.60;99.90
21167;DHT22;10741;52.272;9.580;2023-07-16T00:23:36;20.50;99.90
21167;DHT22;10741;52.272;9.580;2023-07-16T00:26:02;20.50;99.90
21167;DHT22;10741;52.272;9.580;2023-07-16T00:28:29;20.40;99.90
21167;DHT22;10741;52.272;9.580;2023-07-16T00:30:55;20.40;99.90
21167;DHT22;10741;52.272;9.580;2023-07-16T00:33:20;20.30;99.90
21167;DHT22;10741;52.272;9.580;2023-07-16T00:35:47;20.20;99.90
21167;DHT22;10741;52.272;9.580;2023-07-16T00:38:14;20.20;99.90
21167;DHT22;10741;52.272;9.580;2023-07-16T00:40:40;20.30;99.90
21167;DHT22;10741;52.272;9.580;2023-07-16T00:43:06;20.30;99.90
21167;DHT22;10741;52.272;9.580;2023-07-16T00:45:32;20.30;99.90
21167;DHT22;10741;52.272;9.580;2023-07-16T00:47:58;20.30;99.90
21167;DHT22;10741;52.272;9.580;2023-07-16T00:50:23;20.30;99.90
21167;DHT22;10741;52.272;9.580;2023-07-16T00:52:49;20.30;99.90
21167;DHT22;10741;52.272;9.580;2023-07-16T00:55:15;20.30;99.90
21167;DHT22;10741;52.272;9.580;2023-07-16T00:57:41;20.10;99.90
21167;DHT22;10741;52.272;9.580;2023-07-16T01:00:08;20.10;99.90
21167;DHT22;10741;52.272;9.580;2023-07-16T01:02:35;20.10;99.90
21167;DHT22;10741;52.272;9.580;2023-07-16T01:05:01;20.10;99.90
21167;DHT22;10741;52.272;9.580;2023-07-16T01:07:29;20.10;99.90
21167;DHT22;10741;52.272;9.580;2023-07-16T01:09:56;20.10;99.90
21167;DHT22;10741;52.272;9.580;2023-07-16T01:12:23;20.20;99.90
21167;DHT22;10741;52.272;9.580;2023-07-16T01:14:51;20.20;99.90
21167;DHT22;10741;52.272;9.580;2023-07-16T01:17:17;20.20;99.90
21167;DHT22;10741;52.272;9.580;2023-07-16T01:19:43;20.30;99.90
21167;DHT22;10741;52.272;9.580;2023-07-16T01:25:19;20.30;99.90
21167;DHT22;10741;52.272;9.580;2023-07-16T01:30:44;20.30;99.90
21167;DHT22;10741;52.272;9.580;2023-07-16T01:33:12;20.30;99.90
21167;DHT22;10741;52.272;9.580;2023-07-16T01:35:40;20.30;99.90
21167;DHT22;10741;52.272;9.580;2023-07-16T01:38:08;20.40;99.90
21167;DHT22;10741;52.272;9.580;2023-07-16T01:40:34;20.40;99.90
21167;DHT22;10741;52.272;9.580;2023-07-16T01:42:59;20.30;99.90
21167;DHT22;10741;52.272;9.580;2023-07-16T01:45:25;20.40;99.90
21167;DHT22;10741;52.272;9.580;2023-07-16T01:50:45;20.30;99.90
21167;DHT22;10741;52.272;9.580;2023-07-16T01:53:11;20.30;99.90
21167;DHT22;10741;52.272;9.580;2023-07-16T01:55:36;20.30;99.90
21167;DHT22;10741;52.272;9.580;2023-07-16T01:58:02;20.30;99.90
21167;DHT22;10741;52.272;9.580;2023-07-16T02:00:28;20.30;99.90
21167;DHT22;10741;52.272;9.580;2023-07-16T02:02:54;20.30;99.90
21167;DHT22;10741;52.272;9.580;2023-07-16T02:05:20;20.30;99.90
21167;DHT22;10741;52.272;9.580;2023-07-16T02:07:45;20.30;99.90
21167;DHT22;10741;52.272;9.580;2023-07-16T02:10:11;20.30;99.90
21167;DHT22;10741;52.272;9.580;2023-07-16T02:12:37;20.20;99.90
21167;DHT22;10741;52.272;9.580;2023-07-16T02:15:02;20.20;99.90
21167;DHT22;10741;52.272;9.580;2023-07-16T02:17:28;20.20;99.90
21167;DHT22;10741;52.272;9.580;2023-07-16T02:19:54;20.20;99.90
21167;DHT22;10741;52.272;9.580;2023-07-16T02:22:20;20.20;99.90
21167;DHT22;10741;52.272;9.580;2023-07-16T02:24:46;20.20;99.90
21167;DHT22;10741;52.272;9.580;2023-07-16T02:27:11;20.20;99.90
21167;DHT22;10741;52.272;9.580;2023-07-16T02:29:37;20.20;99.90
21167;DHT22;10741;52.272;9.580;2023-07-16T02:32:03;20.20;99.90
21167;DHT22;10741;52.272;9.580;2023-07-16T02:34:29;20.10;99.90
21167;DHT22;10741;52.272;9.580;2023-07-16T02:36:55;20.10;99.90
21167;DHT22;10741;52.272;9.580;2023-07-16T02:39:20;20.10;99.90
21167;DHT22;10741;52.272;9.580;2023-07-16T02:41:46;20.10;99.90
21167;DHT22;10741;52.272;9.580;2023-07-16T02:44:12;20.10;99.90
21167;DHT22;10741;52.272;9.580;2023-07-16T02:46:38;20.10;99.90
21167;DHT22;10741;52.272;9.580;2023-07-16T02:49:03;20.10;99.90
21167;DHT22;10741;52.272;9.580;2023-07-16T02:51:30;20.00;99.90
21167;DHT22;10741;52.272;9.580;2023-07-16T02:53:55;20.00;99.90
21167;DHT22;10741;52.272;9.580;2023-07-16T02:56:21;19.90;99.90
21167;DHT22;10741;52.272;9.580;2023-07-16T02:58:47;19.90;99.90
21167;DHT22;10741;52.272;9.580;2023-07-16T03:01:13;19.80;99.90
21167;DHT22;10741;52.272;9.580;2023-07-16T03:03:38;19.80;99.90
21167;DHT22;10741;52.272;9.580;2023-07-16T03:06:04;19.80;99.90
21167;DHT22;10741;52.272;9.580;2023-07-16T03:08:30;19.70;99.90
21167;DHT22;10741;52.272;9.580;2023-07-16T03:10:57;19.70;99.90
21167;DHT22;10741;52.272;9.580;2023-07-16T03:13:23;19.60;99.90
21167;DHT22;10741;52.272;9.580;2023-07-16T03:15:48;19.60;99.90
21167;DHT22;10741;52.272;9.580;2023-07-16T03:18:15;19.50;99.90
21167;DHT22;10741;52.272;9.580;2023-07-16T03:20:41;19.50;99.90
21167;DHT22;10741;52.272;9.580;2023-07-16T03:23:07;19.40;99.90
21167;DHT22;10741;52.272;9.580;2023-07-16T03:25:32;19.40;99.90
21167;DHT22;10741;52.272;9.580;2023-07-16T03:27:58;19.40;99.90
21167;DHT22;10741;52.272;9.580;2023-07-16T03:30:24;19.40;99.90
21167;DHT22;10741;52.272;9.580;2023-07-16T03:32:50;19.30;99.90
21167;DHT22;10741;52.272;9.580;2023-07-16T03:35:15;19.30;99.90
21167;DHT22;10741;52.272;9.580;2023-07-16T03:37:41;19.30;99.90
21167;DHT22;10741;52.272;9.580;2023-07-16T03:40:14;19.30;99.90
21167;DHT22;10741;52.272;9.580;2023-07-16T03:42:41;19.20;99.90
21167;DHT22;10741;52.272;9.580;2023-07-16T03:45:07;20.30;99.90
21167;DHT22;10741;52.272;9.580;2023-07-16T03:47:33;19.20;99.90
21167;DHT22;10741;52.272;9.580;2023-07-16T03:49:59;19.20;99.90
21167;DHT22;10741;52.272;9.580;2023-07-16T03:52:25;19.10;99.90
21167;DHT22;10741;52.272;9.580;2023-07-16T03:54:52;19.10;99.90
21167;DHT22;10741;52.272;9.580;2023-07-16T03:57:18;19.20;99.90
21167;DHT22;10741;52.272;9.580;2023-07-16T03:59:43;19.20;99.90
21167;DHT22;10741;52.272;9.580;2023-07-16T04:02:09;19.10;99.90
21167;DHT22;10741;52.272;9.580;2023-07-16T04:04:35;19.20;99.90
21167;DHT22;10741;52.272;9.580;2023-07-16T04:07:00;19.20;99.90
21167;DHT22;10741;52.272;9.580;2023-07-16T04:09:26;19.10;99.90
21167;DHT22;10741;52.272;9.580;2023-07-16T04:11:52;19.20;99.90
21167;DHT22;10741;52.272;9.580;2023-07-16T04:14:18;19.20;99.90
21167;DHT22;10741;52.272;9.580;2023-07-16T04:16:44;19.20;99.90
21167;DHT22;10741;52.272;9.580;2023-07-16T04:19:09;19.20;99.90
21167;DHT22;10741;52.272;9.580;2023-07-16T04:21:35;19.30;99.90
21167;DHT22;10741;52.272;9.580;2023-07-16T04:24:05;19.30;99.90
21167;DHT22;10741;52.272;9.580;2023-07-16T04:26:31;19.30;99.90
21167;DHT22;10741;52.272;9.580;2023-07-16T04:28:57;19.20;99.90
21167;DHT22;10741;52.272;9.580;2023-07-16T04:31:23;19.20;99.90
21167;DHT22;10741;52.272;9.580;2023-07-16T04:33:48;19.20;99.90
21167;DHT22;10741;52.272;9.580;2023-07-16T04:36:15;19.20;99.90
21167;DHT22;10741;52.272;9.580;2023-07-16T04:38:41;19.20;99.90
21167;DHT22;10741;52.272;9.580;2023-07-16T04:41:06;19.20;99.90
21167;DHT22;10741;52.272;9.580;2023-07-16T04:43:32;19.20;99.90
21167;DHT22;10741;52.272;9.580;2023-07-16T04:45:58;19.20;99.90
21167;DHT22;10741;52.272;9.580;2023-07-16T04:48:24;19.20;99.90
21167;DHT22;10741;52.272;9.580;2023-07-16T04:50:51;19.20;99.90
21167;DHT22;10741;52.272;9.580;2023-07-16T04:53:18;19.20;99.90
21167;DHT22;10741;52.272;9.580;2023-07-16T04:55:44;19.30;99.90
21167;DHT22;10741;52.272;9.580;2023-07-16T04:58:11;19.30;99.90
21167;DHT22;10741;52.272;9.580;2023-07-16T05:00:37;19.30;99.90
21167;DHT22;10741;52.272;9.580;2023-07-16T05:03:03;19.40;99.90
21167;DHT22;10741;52.272;9.580;2023-07-16T05:05:29;19.40;99.90
21167;DHT22;10741;52.272;9.580;2023-07-16T05:07:55;19.40;99.90
21167;DHT22;10741;52.272;9.580;2023-07-16T05:10:21;19.50;99.90
21167;DHT22;10741;52.272;9.580;2023-07-16T05:12:47;19.40;99.90
21167;DHT22;10741;52.272;9.580;2023-07-16T05:15:12;19.40;99.90
21167;DHT22;10741;52.272;9.580;2023-07-16T05:17:38;19.40;99.90
21167;DHT22;10741;52.272;9.580;2023-07-16T05:20:05;19.30;99.90
21167;DHT22;10741;52.272;9.580;2023-07-16T05:22:31;19.30;99.90
21167;DHT22;10741;52.272;9.580;2023-07-16T05:24:57;19.30;99.90
21167;DHT22;10741;52.272;9.580;2023-07-16T05:27:23;19.20;99.90
21167;DHT22;10741;52.272;9.580;2023-07-16T05:29:49;19.30;99.90
21167;DHT22;10741;52.272;9.580;2023-07-16T05:32:15;19.20;99.90
21167;DHT22;10741;52.272;9.580;2023-07-16T05:34:40;19.30;99.90
21167;DHT22;10741;52.272;9.580;2023-07-16T05:37:06;19.40;99.90
21167;DHT22;10741;52.272;9.580;2023-07-16T05:39:32;19.50;99.90
21167;DHT22;10741;52.272;9.580;2023-07-16T05:41:58;19.70;99.90
21167;DHT22;10741;52.272;9.580;2023-07-16T05:44:23;19.90;99.90
21167;DHT22;10741;52.272;9.580;2023-07-16T05:46:49;20.00;99.90
21167;DHT22;10741;52.272;9.580;2023-07-16T05:49:15;20.10;99.90
21167;DHT22;10741;52.272;9.580;2023-07-16T05:51:41;20.10;99.90
21167;DHT22;10741;52.272;9.580;2023-07-16T05:54:07;20.20;99.90
21167;DHT22;10741;52.272;9.580;2023-07-16T05:56:32;20.20;99.90
21167;DHT22;10741;52.272;9.580;2023-07-16T05:58:58;20.30;99.90
21167;DHT22;10741;52.272;9.580;2023-07-16T06:01:24;20.50;99.90
21167;DHT22;10741;52.272;9.580;2023-07-16T06:03:50;20.60;99.90
21167;DHT22;10741;52.272;9.580;2023-07-16T06:06:15;20.60;99.90
21167;DHT22;10741;52.272;9.580;2023-07-16T06:08:41;20.60;99.90
21167;DHT22;10741;52.272;9.580;2023-07-16T06:11:07;20.80;99.90
21167;DHT22;10741;52.272;9.580;2023-07-16T06:13:33;20.90;99.90
21167;DHT22;10741;52.272;9.580;2023-07-16T06:15:59;20.90;99.90
21167;DHT22;10741;52.272;9.580;2023-07-16T06:18:24;21.10;99.90
21167;DHT22;10741;52.272;9.580;2023-07-16T06:20:50;21.10;99.90
21167;DHT22;10741;52.272;9.580;2023-07-16T06:23:17;21.00;99.90
21167;DHT22;10741;52.272;9.580;2023-07-16T06:25:43;21.10;99.90
21167;DHT22;10741;52.272;9.580;2023-07-16T06:28:14;21.10;99.90
21167;DHT22;10741;52.272;9.580;2023-07-16T06:30:39;21.20;99.90
21167;DHT22;10741;52.272;9.580;2023-07-16T06:33:05;21.30;99.90
21167;DHT22;10741;52.272;9.580;2023-07-16T06:35:31;21.40;99.90
21167;DHT22;10741;52.272;9.580;2023-07-16T06:37:57;21.40;99.90
21167;DHT22;10741;52.272;9.580;2023-07-16T06:40:24;21.40;99.90
21167;DHT22;10741;52.272;9.580;2023-07-16T06:42:49;21.30;99.90
21167;DHT22;10741;52.272;9.580;2023-07-16T06:45:17;21.50;99.90
21167;DHT22;10741;52.272;9.580;2023-07-16T06:47:43;21.40;99.90
21167;DHT22;10741;52.272;9.580;2023-07-16T06:50:09;21.40;99.90
21167;DHT22;10741;52.272;9.580;2023-07-16T06:52:35;21.50;99.90
21167;DHT22;10741;52.272;9.580;2023-07-16T06:55:01;21.60;99.90
21167;DHT22;10741;52.272;9.580;2023-07-16T06:57:27;21.50;99.90
21167;DHT22;10741;52.272;9.580;2023-07-16T06:59:52;21.90;99.90
21167;DHT22;10741;52.272;9.580;2023-07-16T07:02:19;21.90;99.90
21167;DHT22;10741;52.272;9.580;2023-07-16T07:04:45;22.00;99.90
21167;DHT22;10741;52.272;9.580;2023-07-16T07:07:11;21.50;99.90
21167;DHT22;10741;52.272;9.580;2023-07-16T07:09:37;21.20;99.90
21167;DHT22;10741;52.272;9.580;2023-07-16T07:12:03;20.90;99.90
21167;DHT22;10741;52.272;9.580;2023-07-16T07:14:29;20.90;99.90
21167;DHT22;10741;52.272;9.580;2023-07-16T07:16:54;21.10;99.90
21167;DHT22;10741;52.272;9.580;2023-07-16T07:19:20;21.30;99.90
21167;DHT22;10741;52.272;9.580;2023-07-16T07:21:46;21.40;99.90
21167;DHT22;10741;52.272;9.580;2023-07-16T07:24:12;21.50;99.90
21167;DHT22;10741;52.272;9.580;2023-07-16T07:26:38;21.60;99.90
21167;DHT22;10741;52.272;9.580;2023-07-16T07:29:04;21.60;99.90
21167;DHT22;10741;52.272;9.580;2023-07-16T07:31:29;21.60;99.90
21167;DHT22;10741;52.272;9.580;2023-07-16T07:33:55;21.60;99.90
21167;DHT22;10741;52.272;9.580;2023-07-16T07:36:23;21.60;99.90
21167;DHT22;10741;52.272;9.580;2023-07-16T07:38:48;21.60;99.90
21167;DHT22;10741;52.272;9.580;2023-07-16T07:41:14;21.70;99.90
21167;DHT22;10741;52.272;9.580;2023-07-16T07:43:40;21.60;99.90
21167;DHT22;10741;52.272;9.580;2023-07-16T07:46:06;21.70;99.90
21167;DHT22;10741;52.272;9.580;2023-07-16T07:48:32;21.70;99.90
21167;DHT22;10741;52.272;9.580;2023-07-16T07:50:57;21.80;99.90
21167;DHT22;10741;52.272;9.580;2023-07-16T07:53:23;21.80;99.90
21167;DHT22;10741;52.272;9.580;2023-07-16T07:55:52;21.80;99.90
21167;DHT22;10741;52.272;9.580;2023-07-16T08:02:22;22.30;99.90
21167;DHT22;10741;52.272;9.580;2023-07-16T08:04:53;22.40;99.90
21167;DHT22;10741;52.272;9.580;2023-07-16T08:07:19;22.40;99.70
21167;DHT22;10741;52.272;9.580;2023-07-16T08:09:46;22.60;99.90
21167;DHT22;10741;52.272;9.580;2023-07-16T08:12:12;22.80;99.70
21167;DHT22;10741;52.272;9.580;2023-07-16T08:14:38;23.00;99.90
21167;DHT22;10741;52.272;9.580;2023-07-16T08:17:04;23.40;99.90
21167;DHT22;10741;52.272;9.580;2023-07-16T08:19:30;23.60;98.70
21167;DHT22;10741;52.272;9.580;2023-07-16T08:21:56;23.50;99.30
21167;DHT22;10741;52.272;9.580;2023-07-16T08:24:22;23.70;99.20
21167;DHT22;10741;52.272;9.580;2023-07-16T08:26:47;24.00;98.60
21167;DHT22;10741;52.272;9.580;2023-07-16T08:29:13;24.00;97.10
21167;DHT22;10741;52.272;9.580;2023-07-16T08:31:39;24.50;97.80
21167;DHT22;10741;52.272;9.580;2023-07-16T08:34:06;24.50;96.00
21167;DHT22;10741;52.272;9.580;2023-07-16T08:36:33;24.50;96.20
21167;DHT22;10741;52.272;9.580;2023-07-16T08:38:59;24.50;95.00
21167;DHT22;10741;52.272;9.580;2023-07-16T08:41:25;24.50;96.40
21167;DHT22;10741;52.272;9.580;2023-07-16T08:43:51;24.50;96.30
21167;DHT22;10741;52.272;9.580;2023-07-16T08:46:17;24.90;95.50
21167;DHT22;10741;52.272;9.580;2023-07-16T08:48:45;25.00;95.30
21167;DHT22;10741;52.272;9.580;2023-07-16T08:51:14;25.30;95.10
21167;DHT22;10741;52.272;9.580;2023-07-16T08:53:40;25.10;94.00
21167;DHT22;10741;52.272;9.580;2023-07-16T08:56:06;24.70;95.00
21167;DHT22;10741;52.272;9.580;2023-07-16T08:58:32;25.00;94.30
21167;DHT22;10741;52.272;9.580;2023-07-16T09:00:59;25.40;95.80
21167;DHT22;10741;52.272;9.580;2023-07-16T09:03:26;25.40;94.70
21167;DHT22;10741;52.272;9.580;2023-07-16T09:05:53;25.80;94.80
21167;DHT22;10741;52.272;9.580;2023-07-16T09:08:19;25.80;93.30
21167;DHT22;10741;52.272;9.580;2023-07-16T09:10:56;25.90;95.10
21167;DHT22;10741;52.272;9.580;2023-07-16T09:13:22;25.50;93.90
21167;DHT22;10741;52.272;9.580;2023-07-16T09:15:53;25.50;93.20
21167;DHT22;10741;52.272;9.580;2023-07-16T09:18:27;25.40;93.40
21167;DHT22;10741;52.272;9.580;2023-07-16T09:20:56;25.30;93.50
21167;DHT22;10741;52.272;9.580;2023-07-16T09:23:25;25.30;93.50
21167;DHT22;10741;52.272;9.580;2023-07-16T09:25:53;25.80;94.90
21167;DHT22;10741;52.272;9.580;2023-07-16T09:28:19;26.00;92.20
21167;DHT22;10741;52.272;9.580;2023-07-16T09:30:46;25.90;92.20
21167;DHT22;10741;52.272;9.580;2023-07-16T09:33:27;26.00;94.50
21167;DHT22;10741;52.272;9.580;2023-07-16T09:35:58;26.40;93.40
21167;DHT22;10741;52.272;9.580;2023-07-16T09:41:33;26.10;91.30
21167;DHT22;10741;52.272;9.580;2023-07-16T09:43:59;26.10;91.80
21167;DHT22;10741;52.272;9.580;2023-07-16T09:46:26;26.20;91.50
21167;DHT22;10741;52.272;9.580;2023-07-16T09:49:01;26.40;90.60
21167;DHT22;10741;52.272;9.580;2023-07-16T09:51:31;26.60;90.70
21167;DHT22;10741;52.272;9.580;2023-07-16T09:54:05;26.80;90.20
21167;DHT22;10741;52.272;9.580;2023-07-16T09:56:52;26.50;91.20
21167;DHT22;10741;52.272;9.580;2023-07-16T09:59:24;27.00;91.00
21167;DHT22;10741;52.272;9.580;2023-07-16T10:01:55;26.60;91.60
21167;DHT22;10741;52.272;9.580;2023-07-16T10:04:38;26.60;91.90
21167;DHT22;10741;52.272;9.580;2023-07-16T10:07:24;26.70;90.40
21167;DHT22;10741;52.272;9.580;2023-07-16T10:10:12;26.70;91.30
21167;DHT22;10741;52.272;9.580;2023-07-16T10:13:04;26.40;91.10
21167;DHT22;10741;52.272;9.580;2023-07-16T10:15:51;26.60;90.30
21167;DHT22;10741;52.272;9.580;2023-07-16T10:18:32;26.70;91.10
21167;DHT22;10741;52.272;9.580;2023-07-16T10:21:07;26.30;89.00
21167;DHT22;10741;52.272;9.580;2023-07-16T10:23:43;25.90;90.40
21167;DHT22;10741;52.272;9.580;2023-07-16T10:26:14;25.90;90.90
21167;DHT22;10741;52.272;9.580;2023-07-16T10:28:40;26.20;91.30
21167;DHT22;10741;52.272;9.580;2023-07-16T10:31:19;26.40;90.60
21167;DHT22;10741;52.272;9.580;2023-07-16T10:33:58;26.50;89.60
21167;DHT22;10741;52.272;9.580;2023-07-16T10:36:26;26.60;91.70
21167;DHT22;10741;52.272;9.580;2023-07-16T10:39:02;26.50;90.20
21167;DHT22;10741;52.272;9.580;2023-07-16T10:41:28;26.30;89.80
21167;DHT22;10741;52.272;9.580;2023-07-16T10:43:56;26.20;90.60
21167;DHT22;10741;52.272;9.580;2023-07-16T10:46:22;26.00;89.10
21167;DHT22;10741;52.272;9.580;2023-07-16T10:48:48;26.00;90.70
21167;DHT22;10741;52.272;9.580;2023-07-16T10:51:15;26.20;91.70
21167;DHT22;10741;52.272;9.580;2023-07-16T10:53:44;26.00;90.00
21167;DHT22;10741;52.272;9.580;2023-07-16T10:56:10;26.00;90.00
21167;DHT22;10741;52.272;9.580;2023-07-16T10:58:37;26.20;90.40
21167;DHT22;10741;52.272;9.580;2023-07-16T11:01:03;26.30;88.60
21167;DHT22;10741;52.272;9.580;2023-07-16T11:03:28;26.40;90.00
21167;DHT22;10741;52.272;9.580;2023-07-16T11:05:54;26.20;85.80
21167;DHT22;10741;52.272;9.580;2023-07-16T11:08:24;26.30;86.90
21167;DHT22;10741;52.272;9.580;2023-07-16T11:10:55;26.60;87.10
21167;DHT22;10741;52.272;9.580;2023-07-16T11:13:28;26.50;86.60
21167;DHT22;10741;52.272;9.580;2023-07-16T11:24:55;26.60;84.50
21167;DHT22;10741;52.272;9.580;2023-07-16T11:27:31;26.40;88.70
21167;DHT22;10741;52.272;9.580;2023-07-16T11:29:59;26.40;85.30
21167;DHT22;10741;52.272;9.580;2023-07-16T11:32:35;26.80;88.60
21167;DHT22;10741;52.272;9.580;2023-07-16T11:35:02;27.00;86.80
21167;DHT22;10741;52.272;9.580;2023-07-16T11:37:31;27.10;84.00
21167;DHT22;10741;52.272;9.580;2023-07-16T11:40:14;27.10;86.00
21167;DHT22;10741;52.272;9.580;2023-07-16T11:42:46;26.80;87.70
21167;DHT22;10741;52.272;9.580;2023-07-16T11:47:43;26.60;85.10
21167;DHT22;10741;52.272;9.580;2023-07-16T11:50:09;27.10;86.00
21167;DHT22;10741;52.272;9.580;2023-07-16T11:52:39;27.00;84.30
21167;DHT22;10741;52.272;9.580;2023-07-16T11:55:08;26.90;84.40
21167;DHT22;10741;52.272;9.580;2023-07-16T11:57:40;27.10;88.00
21167;DHT22;10741;52.272;9.580;2023-07-16T12:00:09;27.20;84.40
21167;DHT22;10741;52.272;9.580;2023-07-16T12:02:37;27.00;82.50
21167;DHT22;10741;52.272;9.580;2023-07-16T12:05:03;26.50;81.80
21167;DHT22;10741;52.272;9.580;2023-07-16T12:07:36;27.10;82.40
21167;DHT22;10741;52.272;9.580;2023-07-16T12:10:04;27.40;84.50
21167;DHT22;10741;52.272;9.580;2023-07-16T12:12:30;27.30;83.40
21167;DHT22;10741;52.272;9.580;2023-07-16T12:14:56;27.20;85.10
21167;DHT22;10741;52.272;9.580;2023-07-16T12:17:22;27.50;84.40
21167;DHT22;10741;52.272;9.580;2023-07-16T12:19:51;27.90;83.10
21167;DHT22;10741;52.272;9.580;2023-07-16T12:22:20;27.90;82.80
21167;DHT22;10741;52.272;9.580;2023-07-16T12:24:46;27.80;84.70
21167;DHT22;10741;52.272;9.580;2023-07-16T12:27:13;27.20;87.00
21167;DHT22;10741;52.272;9.580;2023-07-16T12:29:42;27.40;84.70
21167;DHT22;10741;52.272;9.580;2023-07-16T12:32:09;27.20;85.80
21167;DHT22;10741;52.272;9.580;2023-07-16T12:34:35;27.10;85.80
21167;DHT22;10741;52.272;9.580;2023-07-16T12:37:01;26.60;82.90
21167;DHT22;10741;52.272;9.580;2023-07-16T12:39:27;26.90;84.00
21167;DHT22;10741;52.272;9.580;2023-07-16T12:41:52;27.00;87.90
21167;DHT22;10741;52.272;9.580;2023-07-16T12:44:18;27.20;85.30
21167;DHT22;10741;52.272;9.580;2023-07-16T12:46:44;27.50;82.40
21167;DHT22;10741;52.272;9.580;2023-07-16T12:49:10;27.80;82.20
21167;DHT22;10741;52.272;9.580;2023-07-16T12:51:42;28.10;82.90
21167;DHT22;10741;52.272;9.580;2023-07-16T12:54:10;27.90;84.00
21167;DHT22;10741;52.272;9.580;2023-07-16T12:56:36;28.00;85.30
21167;DHT22;10741;52.272;9.580;2023-07-16T12:59:02;27.80;80.80
21167;DHT22;10741;52.272;9.580;2023-07-16T13:01:29;27.60;81.80
21167;DHT22;10741;52.272;9.580;2023-07-16T13:03:56;27.40;83.90
21167;DHT22;10741;52.272;9.580;2023-07-16T13:06:22;27.80;81.30
21167;DHT22;10741;52.272;9.580;2023-07-16T13:08:48;27.90;80.90
21167;DHT22;10741;52.272;9.580;2023-07-16T13:11:16;27.80;79.20
21167;DHT22;10741;52.272;9.580;2023-07-16T13:13:41;28.00;85.30
21167;DHT22;10741;52.272;9.580;2023-07-16T13:16:09;28.30;85.80
21167;DHT22;10741;52.272;9.580;2023-07-16T13:18:35;27.70;79.70
21167;DHT22;10741;52.272;9.580;2023-07-16T13:21:01;27.00;81.10
21167;DHT22;10741;52.272;9.580;2023-07-16T13:23:27;27.50;86.30
21167;DHT22;10741;52.272;9.580;2023-07-16T13:25:52;27.50;81.50
21167;DHT22;10741;52.272;9.580;2023-07-16T13:31:14;28.00;83.10
21167;DHT22;10741;52.272;9.580;2023-07-16T13:33:39;27.30;81.80
21167;DHT22;10741;52.272;9.580;2023-07-16T13:36:08;27.10;82.20
21167;DHT22;10741;52.272;9.580;2023-07-16T13:38:37;27.20;81.20
21167;DHT22;10741;52.272;9.580;2023-07-16T13:41:03;27.80;83.40
21167;DHT22;10741;52.272;9.580;2023-07-16T13:43:29;27.80;81.60
21167;DHT22;10741;52.272;9.580;2023-07-16T13:45:55;28.30;85.00
21167;DHT22;10741;52.272;9.580;2023-07-16T13:48:20;28.30;80.00
21167;DHT22;10741;52.272;9.580;2023-07-16T13:50:49;28.50;79.30
21167;DHT22;10741;52.272;9.580;2023-07-16T13:53:14;28.80;83.40
21167;DHT22;10741;52.272;9.580;2023-07-16T13:55:40;29.00;79.00
21167;DHT22;10741;52.272;9.580;2023-07-16T13:58:06;29.00;77.90
21167;DHT22;10741;52.272;9.580;2023-07-16T14:00:32;28.50;79.40
21167;DHT22;10741;52.272;9.580;2023-07-16T14:02:57;28.50;77.80
21167;DHT22;10741;52.272;9.580;2023-07-16T14:05:23;28.60;79.80
21167;DHT22;10741;52.272;9.580;2023-07-16T14:07:49;28.80;78.70
21167;DHT22;10741;52.272;9.580;2023-07-16T14:10:16;28.40;77.10
21167;DHT22;10741;52.272;9.580;2023-07-16T14:12:42;28.30;82.40
21167;DHT22;10741;52.272;9.580;2023-07-16T14:15:08;28.60;78.90
21167;DHT22;10741;52.272;9.580;2023-07-16T14:17:34;28.20;80.50
21167;DHT22;10741;52.272;9.580;2023-07-16T14:19:59;27.60;81.00
21167;DHT22;10741;52.272;9.580;2023-07-16T14:22:25;27.20;81.40
21167;DHT22;10741;52.272;9.580;2023-07-16T14:24:53;26.80;80.60
21167;DHT22;10741;52.272;9.580;2023-07-16T14:27:43;26.50;81.10
21167;DHT22;10741;52.272;9.580;2023-07-16T14:30:37;27.00;82.00
21167;DHT22;10741;52.272;9.580;2023-07-16T14:33:03;27.30;82.40
21167;DHT22;10741;52.272;9.580;2023-07-16T14:35:33;27.30;79.80
21167;DHT22;10741;52.272;9.580;2023-07-16T14:37:59;27.40;79.40
21167;DHT22;10741;52.272;9.580;2023-07-16T14:40:24;27.20;82.00
21167;DHT22;10741;52.272;9.580;2023-07-16T14:42:51;27.40;79.30
21167;DHT22;10741;52.272;9.580;2023-07-16T14:45:17;27.40;83.40
21167;DHT22;10741;52.272;9.580;2023-07-16T14:47:43;27.00;79.10
21167;DHT22;10741;52.272;9.580;2023-07-16T14:50:09;27.10;81.10
21167;DHT22;10741;52.272;9.580;2023-07-16T14:52:35;27.00;81.10
21167;DHT22;10741;52.272;9.580;2023-07-16T14:55:02;26.90;84.10
21167;DHT22;10741;52.272;9.580;2023-07-16T14:57:30;26.50;81.80
21167;DHT22;10741;52.272;9.580;2023-07-16T14:59:56;26.20;83.30
21167;DHT22;10741;52.272;9.580;2023-07-16T15:02:22;26.20;85.50
21167;DHT22;10741;52.272;9.580;2023-07-16T15:04:47;26.40;83.30
21167;DHT22;10741;52.272;9.580;2023-07-16T15:07:13;26.50;83.70
21167;DHT22;10741;52.272;9.580;2023-07-16T15:09:39;26.60;84.80
21167;DHT22;10741;52.272;9.580;2023-07-16T15:12:08;26.60;85.50
21167;DHT22;10741;52.272;9.580;2023-07-16T15:14:34;26.50;87.50
21167;DHT22;10741;52.272;9.580;2023-07-16T15:17:00;26.30;85.00
21167;DHT22;10741;52.272;9.580;2023-07-16T15:19:26;26.30;82.80
21167;DHT22;10741;52.272;9.580;2023-07-16T15:21:54;26.10;83.40
21167;DHT22;10741;52.272;9.580;2023-07-16T15:24:20;26.10;88.30
21167;DHT22;10741;52.272;9.580;2023-07-16T15:26:47;26.10;87.40
21167;DHT22;10741;52.272;9.580;2023-07-16T15:29:13;26.20;87.50
21167;DHT22;10741;52.272;9.580;2023-07-16T15:31:39;26.20;84.30
21167;DHT22;10741;52.272;9.580;2023-07-16T15:34:04;26.10;83.30
21167;DHT22;10741;52.272;9.580;2023-07-16T15:36:30;25.80;83.00
21167;DHT22;10741;52.272;9.580;2023-07-16T15:38:56;25.70;87.50
21167;DHT22;10741;52.272;9.580;2023-07-16T15:41:22;25.70;86.30
21167;DHT22;10741;52.272;9.580;2023-07-16T15:43:53;25.60;87.90
21167;DHT22;10741;52.272;9.580;2023-07-16T15:46:19;25.50;87.40
21167;DHT22;10741;52.272;9.580;2023-07-16T15:48:47;25.50;85.90
21167;DHT22;10741;52.272;9.580;2023-07-16T15:51:13;25.60;90.00
21167;DHT22;10741;52.272;9.580;2023-07-16T15:53:40;25.50;85.80
21167;DHT22;10741;52.272;9.580;2023-07-16T15:56:06;25.50;85.70
21167;DHT22;10741;52.272;9.580;2023-07-16T15:58:32;25.50;89.40
21167;DHT22;10741;52.272;9.580;2023-07-16T16:00:58;25.60;90.00